Time;durP1;ratioP1;P1;durP2;ratioP2;P2;SDS_P1;SDS_P2;PMS_P1;PMS_P2;Temp;Humidity;BMP_temperature;BMP_pressure;BME280_temperature;BME280_humidity;BME280_pressure;Samples;Min_cycle;Max_cycle;Signal;HPM_P1;HPM_P2
2021/09/30 00:01:07;;;;;;;6.45;5.43;;;;;;;21.85;64.93;101941.13;144993;589;6002;-75
2021/09/30 00:03:33;;;;;;;7.40;5.80;;;;;;;21.78;65.07;101936.69;144993;637;6002;-77
2021/09/30 00:06:00;;;;;;;5.93;5.28;;;;;;;21.76;65.46;101947.28;144993;660;6002;-77
2021/09/30 00:08:26;;;;;;;7.53;5.32;;;;;;;21.74;65.69;101947.25;144993;563;6002;-78
2021/09/30 00:11:04;;;;;;;6.00;5.37;;;;;;;21.70;65.80;101953.44;144993;594;6002;-75
2021/09/30 00:13:54;;;;;;;6.53;5.05;;;;;;;21.70;65.35;101944.63;144993;679;6002;-78
2021/09/30 00:33:07;;;;;;;;;;;;;;;21.38;67.93;101945.37;144997;910;6006;-78
2021/09/30 00:35:52;;;;;;;6.22;4.90;;;;;;;21.35;66.59;101948.87;144998;593;5002;-78
2021/09/30 00:49:38;;;;;;;5.93;4.70;;;;;;;21.28;66.69;101941.78;144993;563;6006;-77
2021/09/30 00:52:18;;;;;;;6.43;5.12;;;;;;;21.32;66.83;101943.56;144994;583;5002;-77
2021/09/30 02:29:51;;;;;;;13.20;8.00;;;;;;;21.25;66.99;101927.69;144994;594;5005;-79
2021/09/30 03:00:15;;;;;;;8.15;7.35;;;;;;;21.09;67.72;101922.31;144994;630;5004;-77
2021/09/30 03:02:44;;;;;;;9.70;8.63;;;;;;;21.01;67.19;101922.31;144994;578;5004;-77
2021/09/30 03:05:12;;;;;;;9.55;8.52;;;;;;;20.98;67.43;101916.09;144994;573;5004;-77
2021/09/30 03:07:41;;;;;;;8.30;7.50;;;;;;;20.93;67.46;101912.56;144993;637;5004;-77
2021/09/30 03:10:08;;;;;;;8.93;6.93;;;;;;;20.92;68.26;101919.59;144994;566;5002;-78
2021/09/30 03:12:37;;;;;;;9.45;7.03;;;;;;;20.92;67.88;101921.34;144994;574;5002;-77
2021/09/30 03:15:28;;;;;;;7.68;6.90;;;;;;;20.92;67.83;101927.53;144994;585;5002;-75
2021/09/30 03:21:59;;;;;;;7.85;6.20;;;;;;;21.00;67.58;101923.16;144994;651;5004;-77
2021/09/30 03:23:38;;;;;;;8.05;6.68;;;;;;;21.02;67.47;101923.16;144994;564;5002;-79
2021/09/30 03:26:05;;;;;;;7.03;6.32;;;;;;;21.04;67.50;101925.81;144994;629;5002;-78
2021/09/30 03:28:32;;;;;;;9.23;6.70;;;;;;;21.04;67.01;101926.69;144994;615;5002;-78
2021/09/30 03:31:03;;;;;;;9.52;6.97;;;;;;;21.05;67.84;101923.19;144994;591;5002;-78
2021/09/30 03:33:30;;;;;;;10.60;6.68;;;;;;;21.07;67.69;101917.91;144994;563;5002;-77
2021/09/30 03:35:56;;;;;;;7.00;6.30;;;;;;;21.09;67.35;101926.72;144994;599;5002;-78
2021/09/30 03:38:23;;;;;;;8.75;6.03;;;;;;;21.06;67.36;101926.69;144994;644;5002;-77
2021/09/30 03:40:50;;;;;;;7.97;5.97;;;;;;;21.05;67.36;101932.88;144994;586;5002;-79
2021/09/30 03:43:19;;;;;;;9.07;6.30;;;;;;;21.00;67.64;101932.84;144993;578;5002;-79
2021/09/30 03:45:46;;;;;;;7.40;6.22;;;;;;;20.96;67.42;101929.28;144994;622;5002;-78
2021/09/30 03:48:13;;;;;;;9.02;6.00;;;;;;;20.92;68.18;101924.87;144994;563;5002;-79
2021/09/30 03:59:19;;;;;;;7.70;5.30;;;;;;;20.88;67.80;101933.62;144994;608;5004;-79
2021/09/30 04:01:57;;;;;;;5.97;5.25;;;;;;;20.89;67.90;101943.34;144994;581;5004;-78
2021/09/30 04:04:27;;;;;;;7.87;5.20;;;;;;;20.89;67.62;101938.06;144994;564;5004;-78
2021/09/30 04:06:58;;;;;;;10.40;5.45;;;;;;;20.91;67.50;101936.31;144994;593;5004;-79
2021/09/30 04:09:28;;;;;;;7.03;5.10;;;;;;;20.93;67.54;101939.81;144994;586;5004;-77
2021/09/30 04:11:59;;;;;;;8.20;6.05;;;;;;;20.95;67.08;101943.38;144994;621;5004;-76
2021/09/30 04:14:26;;;;;;;8.70;5.78;;;;;;;20.96;67.86;101944.25;144994;613;5004;-77
2021/09/30 04:16:53;;;;;;;7.10;5.12;;;;;;;21.00;67.25;101939.00;144994;575;5004;-79
2021/09/30 04:19:21;;;;;;;11.27;5.72;;;;;;;21.00;67.75;101932.84;144994;572;5004;-79
2021/09/30 04:21:50;;;;;;;7.35;5.40;;;;;;;21.02;67.46;101928.44;144994;573;5004;-80
2021/09/30 04:24:17;;;;;;;7.20;5.22;;;;;;;21.01;67.07;101932.84;144994;634;5004;-78
2021/09/30 04:26:44;;;;;;;10.70;6.30;;;;;;;21.06;67.69;101942.53;144994;579;5004;-76
2021/09/30 04:29:11;;;;;;;9.07;5.65;;;;;;;21.08;67.43;101943.41;144994;567;5005;-77
2021/09/30 04:31:38;;;;;;;7.28;5.50;;;;;;;21.08;67.55;101941.69;144994;568;5004;-78
2021/09/30 04:34:04;;;;;;;6.55;5.30;;;;;;;21.08;67.41;101938.16;144994;582;5004;-79
2021/09/30 04:36:31;;;;;;;7.90;5.60;;;;;;;21.11;67.37;101946.09;144994;607;5005;-79
2021/09/30 04:38:57;;;;;;;7.00;5.05;;;;;;;21.11;66.98;101943.44;144993;567;5004;-79
2021/09/30 04:41:24;;;;;;;7.20;5.30;;;;;;;21.12;67.16;101939.94;144994;643;5002;-78
2021/09/30 04:43:51;;;;;;;9.30;5.12;;;;;;;21.14;66.88;101943.47;144994;598;5003;-77
2021/09/30 04:46:20;;;;;;;6.80;5.03;;;;;;;21.17;67.51;101940.84;144994;566;5002;-80
2021/09/30 04:48:50;;;;;;;6.35;5.20;;;;;;;21.21;66.99;101945.28;144994;594;5002;-79
2021/09/30 04:51:17;;;;;;;9.95;5.72;;;;;;;21.25;66.99;101952.31;144994;615;5002;-79
2021/09/30 04:53:44;;;;;;;9.45;5.40;;;;;;;21.29;66.81;101948.84;144994;584;5002;-78
2021/09/30 04:56:12;;;;;;;6.40;5.72;;;;;;;21.32;66.72;101959.41;144994;605;5002;-78
2021/09/30 04:58:39;;;;;;;8.02;5.90;;;;;;;21.31;66.99;101956.75;144994;583;5002;-80
2021/09/30 05:01:06;;;;;;;6.82;5.37;;;;;;;21.30;66.90;101960.25;144994;615;5002;-79
2021/09/30 05:03:32;;;;;;;8.30;5.75;;;;;;;21.30;66.88;101960.25;144993;634;5002;-80
2021/09/30 05:05:58;;;;;;;10.02;5.72;;;;;;;21.29;67.08;101972.59;144994;589;5002;-79
2021/09/30 05:08:26;;;;;;;10.63;6.93;;;;;;;21.31;66.59;101968.19;144994;587;5002;-79
2021/09/30 05:10:53;;;;;;;8.32;5.32;;;;;;;21.34;66.75;101972.63;144994;580;5002;-80
2021/09/30 05:13:25;;;;;;;6.28;5.68;;;;;;;21.36;66.38;101970.88;144994;593;5002;-78
2021/09/30 05:15:53;;;;;;;8.77;5.20;;;;;;;21.37;66.45;101972.66;144994;620;5002;-78
2021/09/30 05:18:20;;;;;;;9.45;4.97;;;;;;;21.42;66.90;101983.22;144994;570;5002;-79
2021/09/30 05:20:50;;;;;;;7.45;5.07;;;;;;;21.45;66.98;101981.47;144994;570;5002;-77
2021/09/30 05:23:17;;;;;;;4.97;4.45;;;;;;;21.52;66.58;101983.31;144994;578;5002;-79
2021/09/30 05:25:46;;;;;;;9.00;5.50;;;;;;;21.62;66.49;101983.34;144994;565;4567;-78
2021/09/30 05:28:16;;;;;;;9.38;4.70;;;;;;;21.68;66.86;101978.97;144994;568;4572;-78
2021/09/30 05:30:43;;;;;;;8.27;4.82;;;;;;;21.77;66.37;101977.25;144994;607;4573;-80
2021/09/30 05:33:09;;;;;;;6.10;4.00;;;;;;;21.82;65.99;101981.66;144992;580;6002;-80
2021/09/30 05:35:36;;;;;;;4.85;3.47;;;;;;;21.83;65.64;101987.84;144992;601;6002;-80
2021/09/30 05:38:02;;;;;;;8.98;6.03;;;;;;;21.81;65.78;101989.56;144992;658;6002;-79
2021/09/30 05:40:29;;;;;;;11.10;7.50;;;;;;;21.80;65.34;101998.41;144992;601;6002;-78
2021/09/30 05:42:58;;;;;;;7.80;5.47;;;;;;;21.78;65.48;101994.84;144992;583;6002;-80
2021/09/30 05:45:25;;;;;;;5.97;3.42;;;;;;;21.78;65.20;102002.78;144992;591;6002;-79
2021/09/30 05:47:51;;;;;;;4.45;3.08;;;;;;;21.76;65.11;102013.34;144992;591;6002;-78
2021/09/30 05:50:19;;;;;;;7.22;2.90;;;;;;;21.67;64.61;102022.12;144992;588;6002;-78
2021/09/30 05:52:46;;;;;;;9.55;3.12;;;;;;;21.66;65.19;102023.00;144992;600;6002;-78
2021/09/30 05:55:12;;;;;;;4.72;2.90;;;;;;;21.63;64.53;102022.09;144992;670;6002;-79
2021/09/30 05:57:39;;;;;;;6.00;3.50;;;;;;;21.63;64.92;102027.38;144992;570;6002;-78
2021/09/30 06:12:07;;;;;;;9.82;8.23;;;;;;;21.47;64.50;102021.97;144992;565;6002;-79
2021/09/30 06:14:35;;;;;;;10.32;6.72;;;;;;;21.47;64.97;102023.75;144992;592;6002;-79
2021/09/30 06:17:03;;;;;;;8.77;6.35;;;;;;;21.47;64.64;102029.03;144992;605;6002;-76
2021/09/30 06:19:30;;;;;;;10.68;6.55;;;;;;;21.47;64.87;102019.34;144992;611;6002;-78
2021/09/30 06:21:57;;;;;;;15.18;7.50;;;;;;;21.47;65.24;102023.75;144992;612;6002;-77
2021/09/30 06:24:25;;;;;;;10.32;7.43;;;;;;;21.49;64.86;102030.84;144992;587;6002;-76
2021/09/30 06:26:51;;;;;;;10.63;6.75;;;;;;;21.48;65.03;102028.19;144992;573;6002;-78
2021/09/30 06:29:18;;;;;;;9.30;5.03;;;;;;;21.45;64.90;102031.66;144992;597;6002;-79
2021/09/30 06:31:45;;;;;;;9.88;4.93;;;;;;;21.42;64.62;102030.78;144992;612;6002;-79
2021/09/30 06:34:11;;;;;;;8.02;4.82;;;;;;;21.31;65.07;102036.00;144992;597;6002;-78
2021/09/30 06:36:38;;;;;;;6.03;4.68;;;;;;;21.31;64.77;102033.34;144992;569;6002;-79
2021/09/30 06:39:04;;;;;;;10.68;6.00;;;;;;;21.18;64.70;102030.63;144992;585;6002;-79
2021/09/30 06:41:31;;;;;;;10.35;6.85;;;;;;;21.10;65.66;102031.47;144992;606;6002;-78
2021/09/30 06:43:57;;;;;;;8.63;5.70;;;;;;;21.08;65.09;102023.53;144992;573;6002;-75
2021/09/30 06:46:24;;;;;;;7.40;5.28;;;;;;;21.09;65.26;102024.41;144992;589;6002;-74
2021/09/30 06:48:51;;;;;;;7.10;5.65;;;;;;;21.11;65.20;102025.28;144992;729;6002;-76
2021/09/30 06:51:17;;;;;;;10.23;7.40;;;;;;;21.15;64.76;102027.09;144992;602;6002;-76
2021/09/30 06:53:44;;;;;;;11.45;7.72;;;;;;;21.17;65.30;102022.69;144992;575;6002;-76
2021/09/30 06:56:14;;;;;;;11.75;8.13;;;;;;;21.22;64.95;102028.00;144992;609;6002;-74
2021/09/30 06:58:43;;;;;;;12.35;8.00;;;;;;;21.26;64.73;102028.03;144992;580;6002;-76
2021/09/30 07:01:10;;;;;;;18.87;8.10;;;;;;;21.29;64.94;102022.78;144992;626;6002;-78
2021/09/30 07:03:37;;;;;;;12.15;7.93;;;;;;;21.32;64.91;102028.09;144992;570;6002;-77
2021/09/30 07:06:03;;;;;;;11.82;8.48;;;;;;;21.37;64.58;102030.75;144992;586;6002;-79
2021/09/30 07:08:30;;;;;;;12.95;7.57;;;;;;;21.40;64.46;102038.69;144992;579;6002;-79
2021/09/30 07:10:56;;;;;;;11.80;7.80;;;;;;;21.43;64.83;102035.16;144992;614;6002;-78
2021/09/30 07:13:24;;;;;;;10.02;6.45;;;;;;;21.38;64.38;102035.16;144992;603;6002;-79
2021/09/30 07:15:52;;;;;;;10.70;6.55;;;;;;;21.31;65.45;102028.94;144992;575;6002;-75
2021/09/30 07:18:20;;;;;;;9.32;5.82;;;;;;;21.27;65.48;102036.84;144992;563;6002;-79
2021/09/30 07:20:48;;;;;;;9.70;5.35;;;;;;;21.27;64.92;102037.75;144992;600;6002;-78
2021/09/30 07:23:14;;;;;;;9.65;5.22;;;;;;;21.25;64.99;102030.66;144992;594;6002;-78
2021/09/30 07:25:41;;;;;;;8.80;5.80;;;;;;;21.25;65.05;102034.19;144991;571;6002;-79
2021/09/30 07:28:08;;;;;;;7.57;5.03;;;;;;;21.27;65.66;102040.37;144992;682;6002;-80
2021/09/30 07:30:35;;;;;;;7.72;5.55;;;;;;;21.32;65.46;102038.66;144992;643;6002;-78
2021/09/30 07:33:02;;;;;;;8.38;4.90;;;;;;;21.32;64.98;102032.50;144992;618;6002;-78
2021/09/30 07:35:29;;;;;;;18.48;5.97;;;;;;;21.34;65.36;102034.25;144992;593;6003;-78
2021/09/30 07:37:56;;;;;;;9.95;5.65;;;;;;;21.36;65.07;102040.44;144992;595;6002;-81
2021/09/30 07:40:23;;;;;;;9.55;5.20;;;;;;;21.37;64.93;102030.75;144992;571;6002;-76
2021/09/30 07:42:53;;;;;;;11.02;5.22;;;;;;;21.42;65.03;102034.28;144992;595;6003;-74
2021/09/30 07:45:20;;;;;;;8.95;5.32;;;;;;;21.39;65.15;102036.91;144991;582;6002;-76
2021/09/30 07:47:47;;;;;;;7.45;5.35;;;;;;;21.42;65.13;102033.41;144992;665;6002;-74
2021/09/30 07:50:13;;;;;;;6.80;4.72;;;;;;;21.47;65.02;102036.97;144992;613;6002;-80
2021/09/30 07:52:40;;;;;;;10.00;4.40;;;;;;;21.51;64.97;102033.50;144992;571;6002;-76
2021/09/30 07:55:07;;;;;;;7.32;4.68;;;;;;;21.56;64.96;102037.94;144992;604;6002;-77
2021/09/30 07:57:34;;;;;;;10.25;4.37;;;;;;;21.61;64.85;102037.94;144992;600;6002;-78
2021/09/30 08:00:00;;;;;;;12.88;4.95;;;;;;;21.66;64.68;102043.25;144992;580;6002;-78
2021/09/30 08:02:27;;;;;;;9.15;4.85;;;;;;;21.68;64.12;102046.78;144992;594;6002;-76
2021/09/30 08:04:53;;;;;;;8.95;4.20;;;;;;;21.68;64.58;102052.97;144992;596;6002;-81
2021/09/30 08:07:20;;;;;;;6.25;3.95;;;;;;;21.66;64.62;102051.19;144992;612;6002;-75
2021/09/30 08:09:46;;;;;;;5.97;3.78;;;;;;;21.68;63.95;102052.97;144992;577;6002;-77
2021/09/30 08:12:13;;;;;;;5.10;3.20;;;;;;;21.68;64.17;102047.69;144992;572;6002;-76
2021/09/30 08:14:39;;;;;;;7.37;3.58;;;;;;;21.70;63.51;102047.69;144992;610;6002;-81
2021/09/30 08:17:06;;;;;;;5.70;3.35;;;;;;;21.72;63.70;102052.09;144992;589;6002;-79
2021/09/30 08:19:32;;;;;;;7.80;4.20;;;;;;;21.74;63.82;102058.25;144992;570;6002;-77
2021/09/30 08:21:58;;;;;;;7.65;4.40;;;;;;;21.78;63.38;102053.00;144992;636;6002;-80
2021/09/30 08:24:25;;;;;;;4.97;3.70;;;;;;;21.83;63.53;102056.56;144992;611;6002;-81
2021/09/30 08:26:51;;;;;;;8.48;4.55;;;;;;;21.84;63.20;102059.22;144992;582;6002;-79
2021/09/30 08:29:19;;;;;;;9.57;4.82;;;;;;;21.85;61.74;102060.09;144992;573;6002;-81
2021/09/30 08:31:46;;;;;;;7.93;4.45;;;;;;;21.88;63.52;102063.63;144992;598;6002;-81
2021/09/30 08:34:13;;;;;;;7.85;3.75;;;;;;;21.96;63.26;102062.78;144992;635;6002;-80
2021/09/30 08:36:40;;;;;;;5.93;3.20;;;;;;;22.02;62.87;102068.09;144992;594;6002;-77
2021/09/30 08:39:07;;;;;;;5.00;3.53;;;;;;;22.07;62.68;102066.34;144992;613;6002;-80
2021/09/30 08:41:35;;;;;;;9.43;3.60;;;;;;;22.13;62.53;102071.66;144992;571;6002;-78
2021/09/30 08:44:02;;;;;;;5.87;3.50;;;;;;;22.17;62.36;102067.25;144992;614;6002;-81
2021/09/30 08:46:29;;;;;;;6.55;3.70;;;;;;;22.16;62.12;102068.13;144992;573;6002;-79
2021/09/30 08:48:56;;;;;;;6.30;3.55;;;;;;;22.17;61.91;102081.34;144992;564;6002;-79
2021/09/30 08:51:23;;;;;;;7.37;3.33;;;;;;;22.18;61.95;102079.59;144991;569;6002;-78
2021/09/30 08:53:49;;;;;;;7.55;3.95;;;;;;;22.16;61.53;102076.94;144992;614;6002;-82
2021/09/30 08:56:16;;;;;;;8.73;4.18;;;;;;;22.16;61.64;102078.69;144992;630;6002;-81
2021/09/30 08:58:43;;;;;;;6.87;3.85;;;;;;;22.12;61.43;102082.22;144992;574;6002;-81
2021/09/30 09:01:12;;;;;;;5.53;3.45;;;;;;;22.04;61.34;102083.06;144992;563;6002;-77
2021/09/30 09:03:47;;;;;;;7.70;3.30;;;;;;;21.97;61.26;102075.09;144992;583;6002;-81
2021/09/30 09:06:31;;;;;;;10.60;8.45;;;;;;;21.95;61.71;102076.84;144992;640;6002;-82
2021/09/30 09:09:30;;;;;;;10.27;7.35;;;;;;;21.97;61.32;102070.72;144992;564;6002;-80
2021/09/30 09:12:03;;;;;;;11.60;4.97;;;;;;;21.96;61.00;102079.50;144992;572;6005;-80
2021/09/30 09:14:33;;;;;;;7.90;3.50;;;;;;;21.95;61.29;102083.03;144992;593;6004;-79
2021/09/30 09:17:14;;;;;;;6.05;3.80;;;;;;;21.94;61.12;102083.91;144992;561;6004;-78
2021/09/30 09:19:50;;;;;;;7.50;3.70;;;;;;;21.93;61.15;102077.72;144992;597;6005;-78
2021/09/30 09:22:22;;;;;;;7.75;3.42;;;;;;;21.97;61.00;102075.09;144992;610;6004;-79
2021/09/30 09:25:19;;;;;;;4.70;3.47;;;;;;;22.01;60.93;102082.19;144992;574;6004;-80
2021/09/30 09:27:49;;;;;;;7.20;3.58;;;;;;;22.02;60.55;102083.97;144992;570;6002;-80
2021/09/30 09:30:41;;;;;;;6.87;3.72;;;;;;;22.05;60.48;102078.69;144992;654;6002;-81
2021/09/30 09:33:24;;;;;;;8.32;3.97;;;;;;;22.08;60.57;102068.13;144992;614;6004;-77
2021/09/30 09:35:55;;;;;;;7.00;3.42;;;;;;;21.98;60.19;102066.31;144992;660;6004;-81
2021/09/30 09:38:25;;;;;;;9.50;4.07;;;;;;;21.96;60.36;102071.56;144992;651;6004;-80
2021/09/30 09:40:57;;;;;;;8.98;5.78;;;;;;;21.96;60.10;102079.50;144992;595;6004;-80
2021/09/30 09:43:36;;;;;;;11.98;6.70;;;;;;;21.95;60.34;102079.50;144992;603;6004;-79
2021/09/30 09:46:04;;;;;;;7.37;4.30;;;;;;;21.97;59.85;102076.00;144992;593;6004;-78
2021/09/30 09:48:33;;;;;;;8.18;4.55;;;;;;;22.00;59.86;102078.66;144992;611;6004;-78
2021/09/30 09:51:03;;;;;;;10.25;4.53;;;;;;;22.03;60.05;102080.41;144992;581;6004;-78
2021/09/30 09:53:32;;;;;;;7.82;3.60;;;;;;;22.01;59.63;102077.75;144992;572;6004;-80
2021/09/30 09:56:20;;;;;;;6.45;2.87;;;;;;;21.89;57.53;102075.09;144992;571;6004;-77
2021/09/30 09:58:53;;;;;;;5.68;3.12;;;;;;;21.88;59.27;102078.59;144992;577;6004;-81
2021/09/30 10:01:43;;;;;;;5.53;3.35;;;;;;;21.81;58.71;102082.06;144992;599;6004;-83
2021/09/30 10:04:11;;;;;;;5.35;3.62;;;;;;;21.79;59.22;102083.84;144992;580;6002;-78
2021/09/30 10:06:39;;;;;;;7.25;3.30;;;;;;;21.63;58.74;102075.81;144992;577;6002;-80
2021/09/30 10:09:08;;;;;;;7.85;3.87;;;;;;;21.53;59.63;102074.91;144992;582;6002;-80
2021/09/30 10:11:36;;;;;;;10.23;5.75;;;;;;;21.37;55.96;102073.00;144991;641;6002;-80
2021/09/30 10:14:08;;;;;;;8.30;5.87;;;;;;;21.38;59.70;102080.94;144992;633;6002;-79
2021/09/30 10:16:36;;;;;;;12.13;8.52;;;;;;;21.43;59.54;102069.50;144992;649;6002;-78
2021/09/30 10:19:08;;;;;;;8.32;4.53;;;;;;;21.48;58.71;102078.38;144992;594;6002;-78
2021/09/30 10:21:36;;;;;;;5.35;3.80;;;;;;;21.44;58.41;102081.84;144992;608;6002;-77
2021/09/30 10:24:27;;;;;;;7.50;3.90;;;;;;;21.43;58.79;102072.16;144992;580;6002;-78
2021/09/30 10:27:00;;;;;;;6.78;3.42;;;;;;;21.44;58.34;102076.56;144992;679;6005;-79
2021/09/30 10:29:47;;;;;;;8.60;6.28;;;;;;;21.45;58.50;102065.13;144992;606;6004;-79
2021/09/30 10:32:20;;;;;;;9.15;4.82;;;;;;;21.42;58.15;102067.75;144992;581;6004;-76
2021/09/30 10:34:48;;;;;;;6.72;3.87;;;;;;;21.47;57.97;102071.31;144992;616;6004;-77
2021/09/30 10:37:31;;;;;;;4.43;2.83;;;;;;;21.42;57.24;102067.75;144992;585;6004;-78
2021/09/30 10:40:19;;;;;;;8.95;3.45;;;;;;;21.31;57.40;102058.00;144992;594;6004;-80
2021/09/30 10:42:56;;;;;;;9.32;4.40;;;;;;;21.30;57.74;102061.53;144992;603;6002;-79
2021/09/30 10:45:39;;;;;;;6.00;4.07;;;;;;;21.28;57.35;102060.59;144992;589;6002;-76
2021/09/30 10:48:45;;;;;;;12.73;6.93;;;;;;;21.31;57.76;102057.13;144992;604;6002;-73
2021/09/30 10:51:13;;;;;;;11.30;7.00;;;;;;;21.32;57.95;102049.22;144992;582;6002;-81
2021/09/30 10:54:05;;;;;;;9.43;5.43;;;;;;;21.35;57.47;102048.34;144991;614;6002;-76
2021/09/30 10:56:41;;;;;;;5.85;4.37;;;;;;;21.44;58.07;102047.50;144992;574;6004;-81
2021/09/30 10:59:39;;;;;;;6.75;5.18;;;;;;;21.56;57.96;102050.25;144992;577;6013;-81
2021/09/30 11:02:08;;;;;;;9.40;3.90;;;;;;;21.65;57.35;102052.97;144992;569;6002;-79
2021/09/30 11:05:02;;;;;;;6.25;3.40;;;;;;;21.73;57.91;102058.28;144992;597;6002;-78
2021/09/30 11:07:29;;;;;;;8.75;4.10;;;;;;;21.76;56.96;102049.47;144992;567;6004;-80
2021/09/30 11:10:18;;;;;;;10.55;5.20;;;;;;;21.73;56.29;102058.28;144992;613;6004;-79
2021/09/30 11:13:23;;;;;;;6.45;3.62;;;;;;;21.71;57.41;102053.00;144992;565;6002;-74
2021/09/30 11:16:14;;;;;;;5.93;3.70;;;;;;;21.74;57.42;102050.31;144992;591;6004;-76
2021/09/30 11:19:00;;;;;;;6.43;3.45;;;;;;;21.73;56.47;102037.16;144992;587;6002;-75
2021/09/30 11:21:45;;;;;;;9.48;3.17;;;;;;;21.67;57.08;102037.97;144992;589;6002;-76
2021/09/30 11:24:25;;;;;;;8.43;3.87;;;;;;;21.55;53.41;102030.91;144992;659;6004;-76
2021/09/30 11:27:12;;;;;;;7.20;3.55;;;;;;;21.49;54.06;102028.22;144992;624;6004;-77
2021/09/30 11:29:41;;;;;;;6.32;3.80;;;;;;;21.49;56.82;102032.59;144992;581;6002;-77
2021/09/30 11:32:25;;;;;;;8.60;3.40;;;;;;;21.53;56.14;102032.63;144992;576;6002;-77
2021/09/30 11:34:52;;;;;;;4.93;3.33;;;;;;;21.59;56.31;102033.53;144992;649;6004;-77
2021/09/30 11:37:35;;;;;;;5.10;3.03;;;;;;;21.60;55.87;102022.97;144992;573;6004;-77
2021/09/30 11:40:05;;;;;;;5.87;3.35;;;;;;;21.54;55.83;102028.25;144992;575;6004;-77
2021/09/30 11:42:47;;;;;;;6.87;3.20;;;;;;;21.58;56.52;102026.50;144992;572;6004;-76
2021/09/30 11:45:17;;;;;;;7.22;3.75;;;;;;;21.65;56.61;102028.28;144993;577;6000;-75
2021/09/30 11:47:46;;;;;;;5.62;2.78;;;;;;;21.69;56.30;102036.22;144993;582;6002;-79
2021/09/30 11:50:28;;;;;;;6.95;3.10;;;;;;;21.68;56.25;102034.47;144993;581;6002;-75
2021/09/30 11:53:01;;;;;;;7.32;3.05;;;;;;;21.63;53.37;102033.53;144993;611;6002;-78
2021/09/30 11:55:28;;;;;;;5.95;3.20;;;;;;;21.62;56.39;102037.09;144993;621;6002;-76
2021/09/30 11:57:58;;;;;;;5.05;2.83;;;;;;;21.66;55.92;102032.69;144993;567;6002;-79
2021/09/30 12:00:25;;;;;;;5.68;2.70;;;;;;;21.71;56.22;102034.50;144993;582;6002;-79
2021/09/30 12:02:57;;;;;;;5.37;2.83;;;;;;;21.77;55.76;102030.09;144993;682;6002;-77
2021/09/30 12:05:25;;;;;;;6.37;2.90;;;;;;;21.85;55.97;102029.25;144993;573;6002;-77
2021/09/30 12:07:52;;;;;;;6.15;2.87;;;;;;;21.93;55.79;102022.22;144993;565;6002;-78
2021/09/30 12:10:19;;;;;;;5.95;2.83;;;;;;;21.99;55.50;102013.44;144993;590;6002;-76
2021/09/30 12:12:46;;;;;;;3.75;2.67;;;;;;;22.05;54.84;102012.56;144993;605;6002;-76
2021/09/30 12:15:14;;;;;;;3.95;2.65;;;;;;;22.07;54.88;102009.03;144993;569;6002;-77
2021/09/30 12:17:42;;;;;;;5.78;2.72;;;;;;;22.12;54.52;102010.81;144992;644;6002;-79
2021/09/30 12:20:12;;;;;;;5.85;3.10;;;;;;;22.15;54.65;102011.72;144992;584;6002;-80
2021/09/30 12:22:44;;;;;;;4.03;2.62;;;;;;;22.14;55.09;102006.41;144992;638;6002;-85
2021/09/30 12:25:20;;;;;;;4.25;2.62;;;;;;;22.20;54.57;102003.78;144992;607;6002;-87
2021/09/30 12:27:49;;;;;;;4.60;2.67;;;;;;;22.26;54.32;102009.09;144992;586;6002;-76
2021/09/30 12:30:28;;;;;;;3.90;2.55;;;;;;;22.27;54.51;102001.16;144992;574;6002;-76
2021/09/30 12:33:00;;;;;;;5.03;2.90;;;;;;;22.34;54.30;101993.28;144993;583;6003;-77
2021/09/30 12:35:32;;;;;;;3.35;2.65;;;;;;;22.39;53.89;101991.50;144993;564;6002;-78
2021/09/30 12:38:05;;;;;;;6.12;2.85;;;;;;;22.40;54.30;101988.00;144992;626;6002;-78
2021/09/30 12:40:53;;;;;;;5.65;2.60;;;;;;;22.33;52.30;101981.78;144993;571;6003;-77
2021/09/30 12:43:27;;;;;;;7.35;2.83;;;;;;;22.37;54.07;101994.16;144993;594;6002;-78
2021/09/30 12:46:13;;;;;;;4.50;2.70;;;;;;;22.46;53.33;101987.97;144993;569;6002;-78
2021/09/30 12:48:40;;;;;;;9.35;3.03;;;;;;;22.51;53.38;101980.94;144993;605;6002;-79
2021/09/30 12:51:22;;;;;;;5.12;2.95;;;;;;;22.51;54.10;101977.38;144993;582;6002;-80
2021/09/30 12:53:51;;;;;;;4.32;2.58;;;;;;;22.54;52.26;101978.28;144993;593;6002;-80
2021/09/30 12:56:27;;;;;;;9.00;3.22;;;;;;;22.56;50.30;101970.34;144993;569;6002;-80
2021/09/30 12:58:54;;;;;;;4.12;2.50;;;;;;;22.59;52.96;101970.34;144993;583;6002;-77
2021/09/30 13:01:34;;;;;;;6.18;5.30;;;;;;;22.63;52.46;101972.97;144993;636;6002;-79
2021/09/30 13:04:24;;;;;;;8.65;3.50;;;;;;;22.74;53.85;101975.63;144993;586;6002;-78
2021/09/30 13:07:03;;;;;;;5.35;2.90;;;;;;;22.87;53.28;101971.19;144993;569;6002;-75
2021/09/30 13:09:40;;;;;;;3.87;2.80;;;;;;;22.71;48.08;101969.44;144993;605;6002;-77
2021/09/30 13:12:15;;;;;;;4.35;2.20;;;;;;;22.72;52.71;101974.75;144993;570;6002;-73
2021/09/30 13:14:53;;;;;;;6.82;5.85;;;;;;;22.72;52.87;101972.09;144993;605;6002;-80
2021/09/30 13:17:27;;;;;;;7.97;3.22;;;;;;;22.83;52.65;101970.31;144992;577;6002;-80
2021/09/30 13:20:01;;;;;;;6.90;3.80;;;;;;;22.77;49.10;101957.09;144993;632;6002;-84
2021/09/30 13:22:42;;;;;;;5.20;3.08;;;;;;;22.60;50.68;101957.09;144993;599;6004;-80
2021/09/30 13:25:17;;;;;;;3.58;2.55;;;;;;;22.56;52.36;101957.12;144994;581;5002;-79
2021/09/30 13:27:46;;;;;;;3.45;2.55;;;;;;;22.56;52.66;101965.06;144994;586;5002;-78
2021/09/30 13:30:19;;;;;;;5.28;2.60;;;;;;;22.53;49.09;101950.06;144994;576;5002;-74
2021/09/30 13:32:46;;;;;;;5.00;2.28;;;;;;;22.59;52.08;101952.69;144994;647;5002;-77
2021/09/30 13:35:15;;;;;;;4.45;2.70;;;;;;;22.57;51.92;101956.22;144994;619;5002;-77
2021/09/30 13:37:42;;;;;;;3.87;2.50;;;;;;;22.61;51.54;101952.69;144993;645;5002;-75
2021/09/30 13:40:10;;;;;;;4.57;3.12;;;;;;;22.59;51.27;101949.19;144994;578;5003;-76
2021/09/30 13:42:38;;;;;;;4.03;2.92;;;;;;;22.60;51.26;101950.94;144994;595;5002;-73
2021/09/30 13:45:10;;;;;;;8.15;3.80;;;;;;;22.61;51.08;101950.06;144994;606;5002;-78
2021/09/30 13:47:37;;;;;;;5.97;3.72;;;;;;;22.54;51.17;101957.12;144994;597;5003;-76
2021/09/30 13:50:05;;;;;;;5.05;3.12;;;;;;;22.54;51.31;101957.12;144994;610;5002;-78
2021/09/30 13:52:32;;;;;;;5.85;3.20;;;;;;;22.53;51.43;101958.00;144994;589;5002;-77
2021/09/30 13:54:58;;;;;;;5.90;2.75;;;;;;;22.59;50.24;101951.84;144994;574;5002;-76
2021/09/30 13:57:25;;;;;;;7.00;2.83;;;;;;;22.49;49.98;101950.94;144994;589;5002;-75
2021/09/30 13:59:51;;;;;;;6.85;2.80;;;;;;;22.40;50.58;101953.59;144994;571;5002;-75
2021/09/30 14:02:18;;;;;;;6.50;2.40;;;;;;;22.39;50.26;101946.53;144994;573;5002;-75
2021/09/30 14:04:44;;;;;;;5.53;2.62;;;;;;;22.39;50.49;101952.69;144994;644;5002;-80
2021/09/30 14:07:11;;;;;;;4.90;2.60;;;;;;;22.43;50.53;101953.56;144994;583;5002;-77
2021/09/30 14:09:38;;;;;;;5.32;3.10;;;;;;;22.44;50.73;101940.34;144994;577;5002;-80
2021/09/30 14:12:06;;;;;;;5.85;3.20;;;;;;;22.52;50.59;101939.47;144994;670;5002;-80
2021/09/30 14:14:32;;;;;;;6.15;3.70;;;;;;;22.46;50.25;101941.25;144994;629;5002;-84
2021/09/30 14:16:59;;;;;;;4.18;2.40;;;;;;;22.42;50.08;101942.13;144994;612;5002;-81
2021/09/30 14:19:26;;;;;;;5.28;2.80;;;;;;;22.44;49.31;101939.47;144994;611;5002;-78
2021/09/30 14:21:54;;;;;;;3.72;2.20;;;;;;;22.34;48.89;101943.88;144994;657;5002;-80
2021/09/30 14:24:21;;;;;;;4.65;2.60;;;;;;;22.22;49.12;101941.19;144994;593;5002;-81
2021/09/30 14:26:49;;;;;;;6.35;2.70;;;;;;;22.13;49.34;101935.88;144994;583;5002;-82
2021/09/30 14:29:16;;;;;;;13.88;3.92;;;;;;;22.15;49.93;101936.78;144994;569;5002;-79
2021/09/30 14:31:42;;;;;;;8.50;3.20;;;;;;;22.15;49.91;101931.50;144994;569;5002;-79
2021/09/30 14:34:10;;;;;;;5.43;2.70;;;;;;;22.22;50.15;101939.44;144994;576;5002;-85
2021/09/30 14:36:37;;;;;;;3.65;2.40;;;;;;;22.05;49.95;101930.62;144994;567;5002;-81
2021/09/30 14:39:07;;;;;;;5.40;3.03;;;;;;;22.06;50.15;101933.25;144994;571;5002;-84
2021/09/30 14:41:34;;;;;;;5.78;2.83;;;;;;;22.00;50.06;101940.28;144994;619;5002;-76
2021/09/30 14:44:00;;;;;;;5.05;3.03;;;;;;;21.94;50.39;101938.53;144994;642;5002;-78